Time;durP1;ratioP1;P1;durP2;ratioP2;P2;SDS_P1;SDS_P2;PMS_P1;PMS_P2;Temp;Humidity;BMP_temperature;BMP_pressure;BME280_temperature;BME280_humidity;BME280_pressure;Samples;Min_cycle;Max_cycle;Signal;HPM_P1;HPM_P2
2024/01/11 00:01:58;;;;;;;;;;;19.20;42.20;;;;;;5056153;28;19929;-61
2024/01/11 00:04:24;;;;;;;;;;;19.20;42.10;;;;;;5038858;28;19927;-61
2024/01/11 00:06:50;;;;;;;;;;;19.20;42.10;;;;;;5055856;28;19935;-61
2024/01/11 00:09:16;;;;;;;;;;;19.20;42.10;;;;;;5040282;28;19925;-61
2024/01/11 00:11:41;;;;;;;;;;;19.10;42.10;;;;;;5049721;28;20268;-61
2024/01/11 00:14:07;;;;;;;;;;;19.10;42.00;;;;;;5035937;28;20459;-61
2024/01/11 00:16:32;;;;;;;;;;;19.10;42.10;;;;;;5019004;28;19952;-61
2024/01/11 00:18:58;;;;;;;;;;;19.10;42.00;;;;;;5036628;28;19968;-61
2024/01/11 00:21:23;;;;;;;;;;;19.10;42.10;;;;;;5018054;28;20020;-61
2024/01/11 00:23:49;;;;;;;;;;;19.10;42.00;;;;;;5018649;28;19932;-61
2024/01/11 00:26:14;;;;;;;;;;;19.00;42.10;;;;;;5046665;28;19948;-61
2024/01/11 00:28:40;;;;;;;;;;;19.00;42.00;;;;;;5056365;28;19973;-61
2024/01/11 00:31:05;;;;;;;;;;;19.00;42.00;;;;;;5044368;28;19968;-61
2024/01/11 00:33:31;;;;;;;;;;;19.00;42.10;;;;;;5035799;28;19924;-61
2024/01/11 00:35:56;;;;;;;;;;;19.00;42.00;;;;;;5018591;28;20300;-61
2024/01/11 00:38:22;;;;;;;;;;;19.00;42.10;;;;;;5040479;28;19920;-61
2024/01/11 00:40:47;;;;;;;;;;;18.90;42.00;;;;;;5036517;28;20014;-61
2024/01/11 00:43:13;;;;;;;;;;;18.90;42.00;;;;;;5002113;28;19922;-61
2024/01/11 00:45:38;;;;;;;;;;;18.90;42.00;;;;;;4998752;28;19933;-61
2024/01/11 00:48:04;;;;;;;;;;;18.90;42.10;;;;;;5034234;28;20023;-61
2024/01/11 00:50:30;;;;;;;;;;;18.90;42.00;;;;;;5018348;28;19925;-61
2024/01/11 00:52:55;;;;;;;;;;;18.90;42.00;;;;;;5043890;28;20442;-61
2024/01/11 00:55:21;;;;;;;;;;;18.90;42.10;;;;;;5035031;28;19925;-61
2024/01/11 00:57:46;;;;;;;;;;;18.80;41.90;;;;;;5035861;28;20416;-61
2024/01/11 01:00:15;;;;;;;;;;;18.80;41.90;;;;;;5028076;28;20277;-61
2024/01/11 01:02:40;;;;;;;;;;;18.80;41.90;;;;;;4997617;28;19987;-61
2024/01/11 01:05:06;;;;;;;;;;;18.80;42.00;;;;;;5015683;28;19930;-61
2024/01/11 01:07:32;;;;;;;;;;;18.80;42.00;;;;;;5035365;28;19929;-61
2024/01/11 01:09:57;;;;;;;;;;;18.80;42.00;;;;;;5034436;28;19925;-61
2024/01/11 01:12:24;;;;;;;;;;;18.70;41.80;;;;;;5044690;28;19925;-60
2024/01/11 01:14:53;;;;;;;;;;;18.70;41.90;;;;;;5055327;28;19928;-61
2024/01/11 01:17:18;;;;;;;;;;;18.70;41.90;;;;;;5036989;28;19924;-61
2024/01/11 01:19:44;;;;;;;;;;;18.70;41.90;;;;;;5037564;28;19925;-61
2024/01/11 01:22:09;;;;;;;;;;;18.70;41.90;;;;;;5036810;28;20035;-61
2024/01/11 01:24:35;;;;;;;;;;;18.70;41.90;;;;;;5036425;28;19924;-61
2024/01/11 01:27:00;;;;;;;;;;;18.60;41.90;;;;;;5055037;28;19951;-61
2024/01/11 01:29:26;;;;;;;;;;;18.70;41.90;;;;;;5055424;28;20019;-61
2024/01/11 01:31:51;;;;;;;;;;;18.60;41.90;;;;;;5050925;28;20052;-61
2024/01/11 01:34:17;;;;;;;;;;;18.60;41.80;;;;;;5044626;28;19925;-61
2024/01/11 01:36:43;;;;;;;;;;;18.60;42.00;;;;;;5047127;28;20287;-61
2024/01/11 01:39:08;;;;;;;;;;;18.60;41.90;;;;;;5054906;28;19971;-61
2024/01/11 01:41:34;;;;;;;;;;;18.60;41.90;;;;;;5037230;28;19925;-60
2024/01/11 01:43:59;;;;;;;;;;;18.60;42.00;;;;;;5053569;28;19925;-61
2024/01/11 01:46:25;;;;;;;;;;;18.60;42.10;;;;;;5054842;28;20334;-61
2024/01/11 01:48:51;;;;;;;;;;;18.60;42.00;;;;;;5036954;28;19935;-61
2024/01/11 01:51:17;;;;;;;;;;;18.60;42.00;;;;;;5053761;28;19932;-61
2024/01/11 01:53:42;;;;;;;;;;;18.60;42.10;;;;;;5037178;28;20372;-61
2024/01/11 01:56:08;;;;;;;;;;;18.60;42.10;;;;;;5027327;28;20400;-61
2024/01/11 01:58:33;;;;;;;;;;;18.60;42.10;;;;;;5016220;28;19925;-61
2024/01/11 02:00:59;;;;;;;;;;;18.60;42.10;;;;;;5000746;28;19932;-60
2024/01/11 02:03:25;;;;;;;;;;;18.70;42.20;;;;;;5034764;28;20385;-61
2024/01/11 02:05:51;;;;;;;;;;;18.70;42.10;;;;;;5029387;28;19932;-61
2024/01/11 02:08:19;;;;;;;;;;;18.70;42.10;;;;;;5034347;28;19925;-61
2024/01/11 02:10:45;;;;;;;;;;;18.70;42.10;;;;;;5000689;28;20361;-61
2024/01/11 02:13:12;;;;;;;;;;;18.70;42.00;;;;;;5033706;28;19956;-61
2024/01/11 02:15:37;;;;;;;;;;;18.70;42.10;;;;;;5028617;28;20026;-62
2024/01/11 02:18:03;;;;;;;;;;;18.70;42.10;;;;;;5028000;28;20400;-62
2024/01/11 02:20:29;;;;;;;;;;;18.70;42.10;;;;;;5015729;28;19931;-62
2024/01/11 02:22:56;;;;;;;;;;;18.80;42.10;;;;;;5028690;28;19952;-62
2024/01/11 02:25:21;;;;;;;;;;;18.80;42.00;;;;;;5019795;28;19925;-62
2024/01/11 02:27:47;;;;;;;;;;;18.80;42.00;;;;;;5052439;28;20292;-62
2024/01/11 02:30:12;;;;;;;;;;;18.80;42.80;;;;;;5053253;28;19925;-62
2024/01/11 02:32:38;;;;;;;;;;;18.80;42.10;;;;;;5054393;28;19928;-62
2024/01/11 02:35:04;;;;;;;;;;;18.80;42.10;;;;;;5031252;28;20296;-62
2024/01/11 02:37:29;;;;;;;;;;;18.80;42.00;;;;;;5016358;28;19925;-62
2024/01/11 02:39:55;;;;;;;;;;;18.80;41.90;;;;;;5015531;28;19921;-62
2024/01/11 02:42:20;;;;;;;;;;;18.90;42.00;;;;;;4991976;28;19930;-62
2024/01/11 02:44:46;;;;;;;;;;;18.90;42.00;;;;;;5018301;28;19921;-62
2024/01/11 02:47:12;;;;;;;;;;;18.90;42.00;;;;;;5016810;28;19929;-62
2024/01/11 02:49:37;;;;;;;;;;;18.90;42.00;;;;;;5035248;28;19931;-62
2024/01/11 02:52:03;;;;;;;;;;;18.90;42.00;;;;;;5035393;28;20336;-62
2024/01/11 02:54:29;;;;;;;;;;;18.90;41.90;;;;;;5022612;28;19925;-62
2024/01/11 02:56:54;;;;;;;;;;;18.90;41.90;;;;;;5021340;28;20392;-62
2024/01/11 02:59:20;;;;;;;;;;;18.90;41.90;;;;;;5015973;28;20012;-62
2024/01/11 03:01:46;;;;;;;;;;;18.90;41.90;;;;;;5027382;28;19970;-62
2024/01/11 03:04:11;;;;;;;;;;;18.90;42.50;;;;;;5015387;28;19991;-62
2024/01/11 03:06:37;;;;;;;;;;;19.00;41.90;;;;;;5033164;28;19925;-62
2024/01/11 03:09:02;;;;;;;;;;;19.00;41.90;;;;;;5032000;28;19925;-62
2024/01/11 03:11:28;;;;;;;;;;;19.00;42.00;;;;;;5015696;28;19921;-62
2024/01/11 03:13:53;;;;;;;;;;;19.00;41.90;;;;;;5033291;28;19929;-62
2024/01/11 03:16:19;;;;;;;;;;;19.00;41.90;;;;;;5032857;28;20339;-62
2024/01/11 03:18:44;;;;;;;;;;;19.00;41.90;;;;;;5015943;28;19936;-62
2024/01/11 03:21:10;;;;;;;;;;;19.10;42.00;;;;;;5027323;28;20343;-62
2024/01/11 03:23:35;;;;;;;;;;;19.00;41.90;;;;;;5052353;28;19947;-63
2024/01/11 03:26:01;;;;;;;;;;;19.00;41.90;;;;;;5052956;28;19925;-62
2024/01/11 03:28:26;;;;;;;;;;;19.00;41.90;;;;;;5035575;28;19929;-62
2024/01/11 03:30:52;;;;;;;;;;;19.00;41.90;;;;;;5016097;28;20288;-62
2024/01/11 03:33:17;;;;;;;;;;;19.10;41.90;;;;;;4995934;28;19926;-62
2024/01/11 03:35:43;;;;;;;;;;;19.10;41.80;;;;;;4995632;28;19925;-62
2024/01/11 03:38:09;;;;;;;;;;;19.00;41.90;;;;;;5012606;28;19921;-62
2024/01/11 03:40:34;;;;;;;;;;;19.10;41.90;;;;;;5006446;28;20400;-62
2024/01/11 03:43:00;;;;;;;;;;;19.10;41.90;;;;;;5052857;28;20022;-62
2024/01/11 03:45:25;;;;;;;;;;;19.10;41.80;;;;;;5052197;28;19978;-62
2024/01/11 03:47:51;;;;;;;;;;;19.10;41.80;;;;;;5053143;28;19929;-62
2024/01/11 03:50:16;;;;;;;;;;;19.10;41.90;;;;;;5052270;28;19971;-62
2024/01/11 03:52:42;;;;;;;;;;;19.10;41.80;;;;;;5027393;28;19930;-62
2024/01/11 03:55:07;;;;;;;;;;;19.10;41.90;;;;;;5037275;28;19929;-62
2024/01/11 03:57:33;;;;;;;;;;;19.10;41.80;;;;;;5033171;28;20403;-62
2024/01/11 03:59:59;;;;;;;;;;;19.10;41.80;;;;;;5042952;28;20625;-62
2024/01/11 04:02:24;;;;;;;;;;;19.10;41.80;;;;;;5034698;28;19925;-62
2024/01/11 04:04:50;;;;;;;;;;;19.10;41.80;;;;;;5034223;28;19925;-62
2024/01/11 04:07:16;;;;;;;;;;;19.10;41.80;;;;;;5034553;28;19935;-62
2024/01/11 04:09:42;;;;;;;;;;;19.20;41.80;;;;;;5035153;28;19929;-62
2024/01/11 04:12:08;;;;;;;;;;;19.10;41.80;;;;;;5051756;28;20038;-62
2024/01/11 04:14:33;;;;;;;;;;;19.20;41.90;;;;;;5034781;28;19931;-62
2024/01/11 04:16:59;;;;;;;;;;;19.20;41.90;;;;;;5032609;28;20412;-62
2024/01/11 04:19:24;;;;;;;;;;;19.20;41.80;;;;;;5018394;28;19931;-62
2024/01/11 04:21:50;;;;;;;;;;;19.20;41.80;;;;;;5017554;28;19980;-62
2024/01/11 04:24:15;;;;;;;;;;;19.20;41.80;;;;;;4994996;28;19964;-62
2024/01/11 04:26:42;;;;;;;;;;;19.20;41.80;;;;;;5031645;28;20290;-62
2024/01/11 04:29:08;;;;;;;;;;;19.20;41.90;;;;;;5043301;28;19985;-62
2024/01/11 04:31:33;;;;;;;;;;;19.20;41.90;;;;;;5034070;28;19931;-62
2024/01/11 04:33:59;;;;;;;;;;;19.20;41.80;;;;;;5044977;28;19925;-62
2024/01/11 04:36:24;;;;;;;;;;;19.20;41.80;;;;;;5032975;28;19995;-62
2024/01/11 04:38:50;;;;;;;;;;;19.20;41.80;;;;;;5015310;28;20023;-62
2024/01/11 04:41:16;;;;;;;;;;;19.20;41.80;;;;;;5031454;28;19925;-62
2024/01/11 04:43:42;;;;;;;;;;;19.20;41.80;;;;;;5024483;28;19929;-62
2024/01/11 04:46:16;;;;;;;;;;;19.20;41.70;;;;;;5018923;28;19926;-62
2024/01/11 04:48:42;;;;;;;;;;;19.20;41.80;;;;;;5050919;28;19924;-62
2024/01/11 04:51:08;;;;;;;;;;;19.30;41.80;;;;;;5047231;28;19932;-62
2024/01/11 04:53:35;;;;;;;;;;;19.30;41.80;;;;;;5016364;28;19955;-62
2024/01/11 04:56:01;;;;;;;;;;;19.30;41.80;;;;;;5055428;28;19936;-62
2024/01/11 04:58:26;;;;;;;;;;;19.30;41.80;;;;;;5055292;28;19925;-62
2024/01/11 05:00:52;;;;;;;;;;;19.30;41.80;;;;;;5054444;28;19947;-62
2024/01/11 05:03:17;;;;;;;;;;;19.30;41.80;;;;;;5017719;28;19925;-62
2024/01/11 05:05:43;;;;;;;;;;;19.30;41.80;;;;;;5030008;28;19947;-62
2024/01/11 05:08:08;;;;;;;;;;;19.30;41.90;;;;;;5021982;28;20012;-62
2024/01/11 05:10:35;;;;;;;;;;;19.30;41.80;;;;;;5015904;28;19925;-62
2024/01/11 05:13:00;;;;;;;;;;;19.30;41.80;;;;;;5054607;28;20513;-62
2024/01/11 05:15:26;;;;;;;;;;;19.30;41.70;;;;;;5054863;28;19931;-62
2024/01/11 05:17:51;;;;;;;;;;;19.30;41.80;;;;;;5055196;28;19929;-62
2024/01/11 05:20:17;;;;;;;;;;;19.30;41.80;;;;;;5055683;28;19925;-62
2024/01/11 05:22:42;;;;;;;;;;;19.30;41.80;;;;;;5036616;28;19932;-62
2024/01/11 05:25:08;;;;;;;;;;;19.30;41.80;;;;;;5054201;28;19924;-62
2024/01/11 05:27:33;;;;;;;;;;;19.30;41.70;;;;;;5036842;28;19932;-62
2024/01/11 05:29:59;;;;;;;;;;;19.30;41.70;;;;;;5054465;28;19932;-62
2024/01/11 05:32:24;;;;;;;;;;;19.30;41.70;;;;;;5036858;28;19921;-62
2024/01/11 05:34:50;;;;;;;;;;;19.30;41.80;;;;;;5037320;28;19936;-61
2024/01/11 05:37:16;;;;;;;;;;;19.30;41.70;;;;;;5035321;28;20368;-62
2024/01/11 05:39:41;;;;;;;;;;;19.40;41.80;;;;;;5054199;28;19936;-62
2024/01/11 05:42:07;;;;;;;;;;;19.30;41.70;;;;;;5036639;28;19925;-62
2024/01/11 05:44:32;;;;;;;;;;;19.40;41.80;;;;;;5054530;28;20004;-62
2024/01/11 05:46:58;;;;;;;;;;;19.40;41.80;;;;;;5036428;28;19932;-62
2024/01/11 05:49:23;;;;;;;;;;;19.40;41.80;;;;;;5033701;28;20403;-62
2024/01/11 05:51:49;;;;;;;;;;;19.40;41.70;;;;;;5016359;28;19921;-63
2024/01/11 05:54:14;;;;;;;;;;;19.40;41.70;;;;;;5029528;28;20394;-62
2024/01/11 05:56:40;;;;;;;;;;;19.40;41.70;;;;;;5036865;28;19921;-62
2024/01/11 05:59:05;;;;;;;;;;;19.40;41.70;;;;;;5053752;28;19924;-62
2024/01/11 06:01:31;;;;;;;;;;;19.40;41.70;;;;;;5054026;28;19929;-62
2024/01/11 06:03:57;;;;;;;;;;;19.40;41.70;;;;;;5019739;28;20372;-62
2024/01/11 06:06:22;;;;;;;;;;;19.40;41.70;;;;;;5034687;28;20020;-61
2024/01/11 06:08:48;;;;;;;;;;;19.40;41.80;;;;;;5034623;28;19925;-62
2024/01/11 06:11:14;;;;;;;;;;;19.40;41.80;;;;;;5050171;28;19982;-62
2024/01/11 06:13:40;;;;;;;;;;;19.40;41.80;;;;;;5054663;28;19931;-62
2024/01/11 06:16:05;;;;;;;;;;;19.40;41.70;;;;;;5025075;28;20015;-62
2024/01/11 06:18:31;;;;;;;;;;;19.40;41.70;;;;;;4996658;28;20015;-62
2024/01/11 06:20:57;;;;;;;;;;;19.40;41.70;;;;;;5014594;28;19987;-62
2024/01/11 06:23:24;;;;;;;;;;;19.40;41.70;;;;;;4996541;28;19925;-62
2024/01/11 06:25:49;;;;;;;;;;;19.40;41.70;;;;;;5013687;28;19933;-62
2024/01/11 06:28:15;;;;;;;;;;;19.40;41.70;;;;;;5030558;28;19924;-62
2024/01/11 06:30:41;;;;;;;;;;;19.40;41.70;;;;;;5042280;28;20003;-62
2024/01/11 06:33:06;;;;;;;;;;;19.40;41.70;;;;;;5033126;28;19925;-62
2024/01/11 06:35:32;;;;;;;;;;;19.40;41.70;;;;;;5028050;28;19926;-62
2024/01/11 06:37:57;;;;;;;;;;;19.40;41.70;;;;;;5013805;28;19932;-62
2024/01/11 06:40:24;;;;;;;;;;;19.40;41.70;;;;;;5013860;28;19926;-62
2024/01/11 06:42:49;;;;;;;;;;;19.50;41.80;;;;;;4996851;28;19949;-62
2024/01/11 06:45:15;;;;;;;;;;;19.50;41.70;;;;;;5023105;28;20381;-62
2024/01/11 06:47:40;;;;;;;;;;;19.50;41.80;;;;;;5032699;28;19976;-62
2024/01/11 06:50:06;;;;;;;;;;;19.50;41.70;;;;;;5032457;28;20381;-62
2024/01/11 06:52:32;;;;;;;;;;;19.50;41.80;;;;;;5015661;28;19928;-62
2024/01/11 06:54:57;;;;;;;;;;;19.40;41.70;;;;;;5032952;28;19925;-62
2024/01/11 06:57:24;;;;;;;;;;;19.50;41.80;;;;;;5042767;28;19964;-62
2024/01/11 06:59:50;;;;;;;;;;;19.50;41.80;;;;;;5052412;28;19931;-62
2024/01/11 07:02:16;;;;;;;;;;;19.50;41.80;;;;;;5052145;28;20015;-62
2024/01/11 07:04:45;;;;;;;;;;;19.50;41.80;;;;;;5035632;28;19982;-62
2024/01/11 07:07:10;;;;;;;;;;;19.50;41.80;;;;;;5052206;28;19924;-62
2024/01/11 07:09:35;;;;;;;;;;;19.50;41.80;;;;;;5053077;28;19948;-63
2024/01/11 07:12:01;;;;;;;;;;;19.50;41.80;;;;;;5033665;28;19982;-62
2024/01/11 07:14:27;;;;;;;;;;;19.50;42.60;;;;;;5033104;28;19925;-62
2024/01/11 07:16:52;;;;;;;;;;;19.50;41.80;;;;;;5052869;28;19990;-62
2024/01/11 07:19:18;;;;;;;;;;;19.50;41.80;;;;;;5053557;28;19931;-62
2024/01/11 07:21:43;;;;;;;;;;;19.50;41.70;;;;;;5021423;28;20381;-62
2024/01/11 07:24:09;;;;;;;;;;;19.50;41.80;;;;;;5045034;28;20304;-62
2024/01/11 07:26:34;;;;;;;;;;;19.50;41.70;;;;;;5053118;28;19931;-64
2024/01/11 07:29:00;;;;;;;;;;;19.50;41.80;;;;;;5052169;28;19925;-62
2024/01/11 07:31:25;;;;;;;;;;;19.50;41.90;;;;;;5053344;28;20265;-62
2024/01/11 07:33:51;;;;;;;;;;;19.50;41.80;;;;;;5053243;28;19979;-62
2024/01/11 07:36:16;;;;;;;;;;;19.50;41.90;;;;;;5023099;28;19925;-62
2024/01/11 07:38:42;;;;;;;;;;;19.50;41.90;;;;;;4995796;28;20373;-63
2024/01/11 07:41:07;;;;;;;;;;;19.50;41.80;;;;;;5012985;28;20340;-63
2024/01/11 07:43:35;;;;;;;;;;;19.50;41.80;;;;;;4995141;28;19932;-63
2024/01/11 07:46:01;;;;;;;;;;;19.50;41.80;;;;;;5013050;28;19930;-63
2024/01/11 07:48:27;;;;;;;;;;;19.50;41.90;;;;;;4995760;28;19955;-63
2024/01/11 07:50:52;;;;;;;;;;;19.50;41.90;;;;;;5012479;28;19925;-63
2024/01/11 07:53:18;;;;;;;;;;;19.50;42.00;;;;;;4995945;28;19933;-63
2024/01/11 07:55:47;;;;;;;;;;;19.50;42.00;;;;;;4996014;28;20373;-63
2024/01/11 07:58:13;;;;;;;;;;;19.50;42.00;;;;;;4994439;28;19988;-62
2024/01/11 08:00:39;;;;;;;;;;;19.60;42.10;;;;;;4995873;28;19929;-62
2024/01/11 08:03:04;;;;;;;;;;;19.50;42.10;;;;;;4995434;28;19926;-62
2024/01/11 08:05:30;;;;;;;;;;;19.50;42.20;;;;;;5020595;28;19925;-63
2024/01/11 08:07:55;;;;;;;;;;;19.50;42.30;;;;;;5014063;28;19994;-62
2024/01/11 08:10:20;;;;;;;;;;;19.50;42.50;;;;;;5011545;28;19926;-61
2024/01/11 08:12:46;;;;;;;;;;;19.60;42.70;;;;;;5011131;28;20048;-62
2024/01/11 08:15:14;;;;;;;;;;;19.50;42.70;;;;;;4995008;28;19934;-62
2024/01/11 08:17:43;;;;;;;;;;;19.60;42.90;;;;;;5012571;28;19979;-61
2024/01/11 08:20:09;;;;;;;;;;;19.60;43.00;;;;;;5012763;28;20056;-63
2024/01/11 08:22:37;;;;;;;;;;;19.60;43.00;;;;;;4998497;28;20020;-64
2024/01/11 08:25:04;;;;;;;;;;;19.60;43.00;;;;;;5015646;28;19979;-62
2024/01/11 08:27:31;;;;;;;;;;;19.60;43.00;;;;;;5016779;28;19926;-63
2024/01/11 08:29:56;;;;;;;;;;;19.60;43.10;;;;;;4999089;28;20357;-63
2024/01/11 08:32:22;;;;;;;;;;;19.60;43.20;;;;;;5016082;28;20044;-63
2024/01/11 08:34:47;;;;;;;;;;;19.60;43.20;;;;;;5016892;28;19948;-63
2024/01/11 08:37:14;;;;;;;;;;;19.60;43.20;;;;;;4998766;28;19968;-64
2024/01/11 08:39:40;;;;;;;;;;;19.60;43.20;;;;;;5026380;28;19971;-62
2024/01/11 08:42:05;;;;;;;;;;;19.70;43.30;;;;;;5037998;28;19925;-62
2024/01/11 08:44:32;;;;;;;;;;;19.60;43.30;;;;;;5022790;28;19929;-63
2024/01/11 08:46:58;;;;;;;;;;;19.70;43.30;;;;;;5034821;28;19925;-62
2024/01/11 08:49:24;;;;;;;;;;;19.70;43.30;;;;;;5017667;28;20373;-62
2024/01/11 08:51:50;;;;;;;;;;;19.70;43.20;;;;;;5016381;28;19925;-62
2024/01/11 08:54:16;;;;;;;;;;;19.70;43.20;;;;;;5034549;28;20414;-62
2024/01/11 08:56:42;;;;;;;;;;;19.70;43.20;;;;;;5035048;28;19929;-62
2024/01/11 08:59:08;;;;;;;;;;;19.70;43.10;;;;;;5017843;28;20272;-61
2024/01/11 09:01:37;;;;;;;;;;;19.70;43.30;;;;;;5017442;28;20288;-61
2024/01/11 09:04:02;;;;;;;;;;;19.70;43.10;;;;;;5035576;28;19925;-62
2024/01/11 09:06:28;;;;;;;;;;;19.70;43.20;;;;;;5018022;28;20281;-62
2024/01/11 09:08:54;;;;;;;;;;;19.70;43.20;;;;;;5016898;28;19932;-62
2024/01/11 09:11:20;;;;;;;;;;;19.70;43.30;;;;;;5035497;28;19976;-61
2024/01/11 09:13:45;;;;;;;;;;;19.70;43.30;;;;;;5017167;28;19925;-62
2024/01/11 09:16:14;;;;;;;;;;;19.70;43.50;;;;;;5034803;28;19929;-62
2024/01/11 09:18:39;;;;;;;;;;;19.70;43.40;;;;;;5035624;28;19969;-62
2024/01/11 09:21:05;;;;;;;;;;;19.70;43.50;;;;;;5034356;28;19979;-62
2024/01/11 09:23:30;;;;;;;;;;;19.70;43.50;;;;;;5035097;28;19931;-64
2024/01/11 09:25:56;;;;;;;;;;;19.70;43.50;;;;;;5034924;28;19925;-62
2024/01/11 09:28:21;;;;;;;;;;;19.70;43.50;;;;;;5016323;28;20004;-61
2024/01/11 09:30:47;;;;;;;;;;;19.70;43.50;;;;;;5035325;28;19932;-61
2024/01/11 09:33:12;;;;;;;;;;;19.70;43.60;;;;;;5034465;28;19925;-61
2024/01/11 09:35:38;;;;;;;;;;;19.70;43.70;;;;;;5034196;28;20388;-61
2024/01/11 09:38:03;;;;;;;;;;;19.70;43.70;;;;;;5034550;28;20391;-62
2024/01/11 09:40:29;;;;;;;;;;;19.80;43.80;;;;;;5034391;28;20027;-62
2024/01/11 09:42:54;;;;;;;;;;;19.80;43.90;;;;;;5032953;28;19952;-62
2024/01/11 09:45:20;;;;;;;;;;;19.80;43.90;;;;;;5017537;28;19925;-61
2024/01/11 09:47:46;;;;;;;;;;;19.80;44.00;;;;;;5015952;28;19926;-61
2024/01/11 09:50:17;;;;;;;;;;;19.80;43.90;;;;;;5033943;28;19933;-61
2024/01/11 09:52:47;;;;;;;;;;;19.80;43.90;;;;;;5001569;28;19933;-61
2024/01/11 09:55:13;;;;;;;;;;;19.80;43.80;;;;;;5034772;28;20020;-61
2024/01/11 09:57:39;;;;;;;;;;;19.80;43.80;;;;;;5033781;28;19975;-61
2024/01/11 10:00:07;;;;;;;;;;;19.80;43.70;;;;;;4993028;28;19926;-60
2024/01/11 10:02:32;;;;;;;;;;;19.80;43.60;;;;;;5016119;28;20258;-60
2024/01/11 10:04:58;;;;;;;;;;;19.80;43.60;;;;;;5026956;28;19945;-61
2024/01/11 10:07:24;;;;;;;;;;;19.80;43.50;;;;;;5015115;28;19984;-61
2024/01/11 10:09:50;;;;;;;;;;;19.80;43.40;;;;;;5033979;28;20032;-61
2024/01/11 10:12:17;;;;;;;;;;;19.80;43.40;;;;;;5032517;28;20355;-61
2024/01/11 10:14:42;;;;;;;;;;;19.80;43.40;;;;;;5034246;28;19929;-61
2024/01/11 10:17:08;;;;;;;;;;;19.80;43.20;;;;;;5014700;28;19931;-60
2024/01/11 10:19:33;;;;;;;;;;;19.70;43.10;;;;;;5033372;28;19971;-61
2024/01/11 10:21:59;;;;;;;;;;;19.80;43.00;;;;;;5033309;28;19968;-62
2024/01/11 10:24:28;;;;;;;;;;;19.80;43.00;;;;;;5031594;28;20455;-61
2024/01/11 10:26:57;;;;;;;;;;;19.80;42.90;;;;;;5032672;28;19925;-61
2024/01/11 10:29:23;;;;;;;;;;;19.80;43.00;;;;;;5015077;28;19929;-61
2024/01/11 10:31:50;;;;;;;;;;;19.80;42.90;;;;;;5033319;28;20402;-59
2024/01/11 10:34:16;;;;;;;;;;;19.80;42.90;;;;;;5016212;28;19926;-59
2024/01/11 10:36:41;;;;;;;;;;;19.80;42.80;;;;;;5033933;28;19929;-59
2024/01/11 10:39:10;;;;;;;;;;;19.80;42.70;;;;;;5015248;28;19972;-60
2024/01/11 10:41:38;;;;;;;;;;;19.70;42.70;;;;;;5033202;28;19925;-60
2024/01/11 10:44:04;;;;;;;;;;;19.80;42.70;;;;;;5014038;28;19987;-61
2024/01/11 10:46:29;;;;;;;;;;;19.80;42.60;;;;;;5032058;28;19928;-60
2024/01/11 10:48:55;;;;;;;;;;;19.80;42.60;;;;;;5013645;28;19937;-60
2024/01/11 10:51:21;;;;;;;;;;;19.80;42.60;;;;;;5033185;28;19932;-61
2024/01/11 10:53:47;;;;;;;;;;;19.80;42.70;;;;;;5014252;28;19925;-61
2024/01/11 10:56:12;;;;;;;;;;;19.80;42.90;;;;;;5033578;28;19929;-61
2024/01/11 10:58:41;;;;;;;;;;;19.80;42.90;;;;;;5034107;28;19979;-61
2024/01/11 11:01:07;;;;;;;;;;;19.80;43.00;;;;;;5032894;28;19979;-61
2024/01/11 11:03:33;;;;;;;;;;;19.80;43.10;;;;;;5033616;28;19925;-60
2024/01/11 11:05:58;;;;;;;;;;;19.80;43.20;;;;;;5033624;28;19929;-60
2024/01/11 11:08:27;;;;;;;;;;;19.80;43.20;;;;;;5015456;28;19950;-61
2024/01/11 11:10:57;;;;;;;;;;;19.80;43.20;;;;;;5015857;28;19929;-60
2024/01/11 11:13:22;;;;;;;;;;;19.80;43.20;;;;;;5014980;28;19982;-60
2024/01/11 11:15:48;;;;;;;;;;;19.80;43.00;;;;;;5015897;28;19925;-61
2024/01/11 11:18:14;;;;;;;;;;;19.80;43.10;;;;;;5032930;28;20288;-60
2024/01/11 11:20:42;;;;;;;;;;;19.80;43.00;;;;;;5015227;28;19925;-61
2024/01/11 11:23:08;;;;;;;;;;;19.80;43.00;;;;;;5015955;28;19926;-61
2024/01/11 11:25:34;;;;;;;;;;;19.80;42.90;;;;;;5032294;28;19925;-61
2024/01/11 11:28:04;;;;;;;;;;;19.80;42.90;;;;;;5013503;28;20387;-60
2024/01/11 11:30:30;;;;;;;;;;;19.80;42.90;;;;;;5033692;28;19925;-60
2024/01/11 11:32:56;;;;;;;;;;;19.80;42.90;;;;;;5033004;28;20269;-59
2024/01/11 11:35:24;;;;;;;;;;;19.80;42.90;;;;;;5031549;28;20042;-60
2024/01/11 11:37:59;;;;;;;;;;;19.80;42.90;;;;;;5007705;28;19929;-60
2024/01/11 11:40:37;;;;;;;;;;;19.80;42.80;;;;;;5013066;28;20411;-60
2024/01/11 11:43:04;;;;;;;;;;;19.80;42.70;;;;;;4994706;28;19976;-60
2024/01/11 11:45:30;;;;;;;;;;;19.80;42.70;;;;;;4995649;28;19930;-61
2024/01/11 11:47:55;;;;;;;;;;;19.80;42.60;;;;;;4979312;28;19929;-60
2024/01/11 11:50:21;;;;;;;;;;;19.80;42.50;;;;;;4995137;28;19980;-60
2024/01/11 11:52:47;;;;;;;;;;;19.80;42.00;;;;;;4996143;28;20012;-61
2024/01/11 11:55:12;;;;;;;;;;;19.80;41.80;;;;;;4984346;28;20377;-61
2024/01/11 11:57:38;;;;;;;;;;;19.80;41.80;;;;;;4999128;28;19926;-62
2024/01/11 12:00:06;;;;;;;;;;;19.80;42.10;;;;;;4999566;28;19925;-61
2024/01/11 12:02:32;;;;;;;;;;;19.80;42.20;;;;;;5007011;28;20020;-60
2024/01/11 12:04:57;;;;;;;;;;;19.80;42.20;;;;;;5019018;28;20340;-62
2024/01/11 12:07:23;;;;;;;;;;;19.80;42.20;;;;;;5017788;28;19925;-60
2024/01/11 12:09:52;;;;;;;;;;;19.80;42.20;;;;;;5035058;28;19932;-61
2024/01/11 12:12:20;;;;;;;;;;;19.90;42.30;;;;;;5036543;28;19925;-60
2024/01/11 12:14:46;;;;;;;;;;;19.90;42.20;;;;;;5036580;28;19929;-61
2024/01/11 12:17:11;;;;;;;;;;;19.90;42.20;;;;;;5035918;28;19936;-60
2024/01/11 12:19:37;;;;;;;;;;;19.90;42.20;;;;;;5036645;28;19929;-61
2024/01/11 12:22:02;;;;;;;;;;;19.90;42.20;;;;;;5018684;28;20443;-61
2024/01/11 12:24:30;;;;;;;;;;;19.90;42.20;;;;;;5001646;28;19932;-61
2024/01/11 12:26:57;;;;;;;;;;;19.90;42.20;;;;;;5001166;28;19929;-60
2024/01/11 12:29:23;;;;;;;;;;;19.90;42.20;;;;;;5016161;28;19925;-61
2024/01/11 12:31:48;;;;;;;;;;;19.90;42.20;;;;;;5015944;28;19928;-62
2024/01/11 12:34:14;;;;;;;;;;;19.90;42.00;;;;;;4999036;28;19925;-60
2024/01/11 12:36:39;;;;;;;;;;;19.90;42.00;;;;;;4999354;28;20385;-60
2024/01/11 12:39:06;;;;;;;;;;;19.90;41.90;;;;;;4998144;28;19921;-60
2024/01/11 12:41:32;;;;;;;;;;;19.90;41.90;;;;;;4998821;28;20300;-60
2024/01/11 12:43:57;;;;;;;;;;;19.90;42.00;;;;;;4982522;28;19925;-60
2024/01/11 12:46:23;;;;;;;;;;;19.90;42.00;;;;;;5033103;28;19925;-60
2024/01/11 12:48:48;;;;;;;;;;;19.90;42.10;;;;;;5036475;28;20009;-60
2024/01/11 12:51:15;;;;;;;;;;;19.90;42.10;;;;;;5035782;28;19925;-60
2024/01/11 12:53:41;;;;;;;;;;;19.90;42.20;;;;;;5035188;28;19925;-60
2024/01/11 12:56:13;;;;;;;;;;;19.90;42.20;;;;;;5018045;28;20300;-60
2024/01/11 12:58:39;;;;;;;;;;;19.90;42.20;;;;;;5036098;28;19928;-60
2024/01/11 13:01:04;;;;;;;;;;;19.90;42.20;;;;;;5017419;28;19929;-60
2024/01/11 13:03:30;;;;;;;;;;;19.90;42.20;;;;;;5001977;28;19960;-60
2024/01/11 13:05:56;;;;;;;;;;;19.90;42.30;;;;;;5017457;28;19983;-60
2024/01/11 13:08:21;;;;;;;;;;;20.00;42.40;;;;;;5034819;28;19978;-60
2024/01/11 13:10:47;;;;;;;;;;;20.00;42.40;;;;;;5035981;28;19961;-60
2024/01/11 13:13:13;;;;;;;;;;;20.00;42.40;;;;;;5016978;28;19947;-60
2024/01/11 13:15:39;;;;;;;;;;;19.90;42.40;;;;;;5018289;28;19925;-60
2024/01/11 13:18:05;;;;;;;;;;;20.00;42.50;;;;;;5026397;28;20262;-60
2024/01/11 13:20:31;;;;;;;;;;;20.00;42.50;;;;;;5015038;28;20011;-60
2024/01/11 13:23:13;;;;;;;;;;;20.00;42.60;;;;;;5015768;28;19925;-60
2024/01/11 13:25:42;;;;;;;;;;;20.00;42.50;;;;;;5015625;28;19925;-60
2024/01/11 13:28:08;;;;;;;;;;;20.00;42.60;;;;;;4996948;28;19925;-60
2024/01/11 13:30:33;;;;;;;;;;;20.00;42.60;;;;;;5015642;28;19932;-60
2024/01/11 13:32:59;;;;;;;;;;;20.00;42.60;;;;;;4998252;28;19933;-60
2024/01/11 13:35:24;;;;;;;;;;;20.00;42.60;;;;;;5014888;28;19925;-60
2024/01/11 13:37:50;;;;;;;;;;;20.00;42.70;;;;;;5015455;28;20293;-60
2024/01/11 13:40:15;;;;;;;;;;;20.00;42.60;;;;;;5015441;28;19976;-60
2024/01/11 13:42:41;;;;;;;;;;;20.00;42.70;;;;;;5014814;28;19980;-60
2024/01/11 13:45:08;;;;;;;;;;;20.00;42.70;;;;;;4997491;28;19979;-60
2024/01/11 13:47:37;;;;;;;;;;;20.00;42.80;;;;;;4997740;28;19972;-60
2024/01/11 13:50:03;;;;;;;;;;;20.00;42.80;;;;;;4997002;28;20011;-60
2024/01/11 13:52:28;;;;;;;;;;;20.00;42.80;;;;;;5015200;28;20393;-60
2024/01/11 13:54:54;;;;;;;;;;;20.00;42.80;;;;;;5015186;28;19976;-60
2024/01/11 13:57:19;;;;;;;;;;;20.00;42.80;;;;;;4996885;28;19925;-60
2024/01/11 13:59:49;;;;;;;;;;;20.00;42.90;;;;;;4997554;28;19921;-60
2024/01/11 14:02:14;;;;;;;;;;;20.00;42.90;;;;;;4996864;28;19926;-61
2024/01/11 14:04:40;;;;;;;;;;;20.00;42.90;;;;;;5016032;28;20020;-61
2024/01/11 14:07:05;;;;;;;;;;;20.00;42.90;;;;;;5034287;28;19978;-61
2024/01/11 14:09:31;;;;;;;;;;;20.00;42.90;;;;;;5034196;28;19925;-61